sensor_id;sensor_type;location;lat;lon;timestamp;P1;durP1;ratioP1;P2;durP2;ratioP2
37288;SDS011;23174;49.462;11.000;2023-08-17T00:00:57;4.38;;;3.13;;
37288;SDS011;23174;49.462;11.000;2023-08-17T00:02:58;2.65;;;2.35;;
37288;SDS011;23174;49.462;11.000;2023-08-17T00:04:58;3.97;;;2.60;;
37288;SDS011;23174;49.462;11.000;2023-08-17T00:06:59;5.80;;;2.50;;
37288;SDS011;23174;49.462;11.000;2023-08-17T00:08:59;3.88;;;2.97;;
37288;SDS011;23174;49.462;11.000;2023-08-17T00:11:00;1.17;;;0.55;;
37288;SDS011;23174;49.462;11.000;2023-08-17T00:13:00;3.08;;;2.78;;
37288;SDS011;23174;49.462;11.000;2023-08-17T00:15:02;3.70;;;3.20;;
37288;SDS011;23174;49.462;11.000;2023-08-17T00:17:03;6.97;;;2.72;;
37288;SDS011;23174;49.462;11.000;2023-08-17T00:19:03;5.00;;;3.25;;
37288;SDS011;23174;49.462;11.000;2023-08-17T00:21:04;5.53;;;2.67;;
37288;SDS011;23174;49.462;11.000;2023-08-17T00:23:04;3.97;;;2.90;;
37288;SDS011;23174;49.462;11.000;2023-08-17T00:25:05;2.88;;;2.67;;
37288;SDS011;23174;49.462;11.000;2023-08-17T00:27:06;5.53;;;3.30;;
37288;SDS011;23174;49.462;11.000;2023-08-17T00:29:06;3.00;;;2.80;;
37288;SDS011;23174;49.462;11.000;2023-08-17T00:31:07;7.20;;;2.97;;
37288;SDS011;23174;49.462;11.000;2023-08-17T00:33:07;3.42;;;3.03;;
37288;SDS011;23174;49.462;11.000;2023-08-17T00:35:08;8.30;;;3.10;;
37288;SDS011;23174;49.462;11.000;2023-08-17T00:37:08;4.97;;;3.33;;
37288;SDS011;23174;49.462;11.000;2023-08-17T00:39:09;4.75;;;2.88;;
37288;SDS011;23174;49.462;11.000;2023-08-17T00:41:09;2.42;;;2.20;;
37288;SDS011;23174;49.462;11.000;2023-08-17T00:43:10;4.82;;;3.47;;
37288;SDS011;23174;49.462;11.000;2023-08-17T00:45:10;2.65;;;2.15;;
37288;SDS011;23174;49.462;11.000;2023-08-17T00:47:11;2.78;;;2.58;;
37288;SDS011;23174;49.462;11.000;2023-08-17T00:49:12;3.08;;;2.88;;
37288;SDS011;23174;49.462;11.000;2023-08-17T00:51:12;8.02;;;2.47;;
37288;SDS011;23174;49.462;11.000;2023-08-17T00:53:14;4.13;;;2.25;;
37288;SDS011;23174;49.462;11.000;2023-08-17T00:55:16;1.67;;;1.58;;
37288;SDS011;23174;49.462;11.000;2023-08-17T00:57:16;3.00;;;2.00;;
37288;SDS011;23174;49.462;11.000;2023-08-17T00:59:17;2.47;;;2.28;;
37288;SDS011;23174;49.462;11.000;2023-08-17T01:01:18;2.35;;;2.05;;
37288;SDS011;23174;49.462;11.000;2023-08-17T01:03:20;1.60;;;1.50;;
37288;SDS011;23174;49.462;11.000;2023-08-17T01:05:23;1.85;;;1.55;;
37288;SDS011;23174;49.462;11.000;2023-08-17T01:07:23;2.90;;;2.58;;
37288;SDS011;23174;49.462;11.000;2023-08-17T01:09:24;2.40;;;2.20;;
37288;SDS011;23174;49.462;11.000;2023-08-17T01:13:35;1.77;;;1.02;;
37288;SDS011;23174;49.462;11.000;2023-08-17T01:15:52;1.90;;;1.80;;
37288;SDS011;23174;49.462;11.000;2023-08-17T01:20:13;5.93;;;2.95;;
37288;SDS011;23174;49.462;11.000;2023-08-17T01:22:17;4.32;;;2.53;;
37288;SDS011;23174;49.462;11.000;2023-08-17T01:24:20;2.00;;;1.85;;
37288;SDS011;23174;49.462;11.000;2023-08-17T01:26:21;6.20;;;2.38;;
37288;SDS011;23174;49.462;11.000;2023-08-17T01:28:21;2.72;;;1.80;;
37288;SDS011;23174;49.462;11.000;2023-08-17T01:30:22;1.50;;;1.15;;
37288;SDS011;23174;49.462;11.000;2023-08-17T01:34:50;3.75;;;2.90;;
37288;SDS011;23174;49.462;11.000;2023-08-17T01:36:58;2.35;;;2.15;;
37288;SDS011;23174;49.462;11.000;2023-08-17T01:39:01;1.52;;;1.48;;
37288;SDS011;23174;49.462;11.000;2023-08-17T01:41:02;1.00;;;0.98;;
37288;SDS011;23174;49.462;11.000;2023-08-17T01:43:04;0.70;;;0.70;;
37288;SDS011;23174;49.462;11.000;2023-08-17T01:45:06;1.65;;;1.55;;
37288;SDS011;23174;49.462;11.000;2023-08-17T01:47:07;2.90;;;2.47;;
37288;SDS011;23174;49.462;11.000;2023-08-17T01:49:07;2.58;;;2.38;;
37288;SDS011;23174;49.462;11.000;2023-08-17T01:51:09;2.05;;;1.58;;
37288;SDS011;23174;49.462;11.000;2023-08-17T01:53:11;6.68;;;2.30;;
37288;SDS011;23174;49.462;11.000;2023-08-17T01:55:12;2.75;;;2.55;;
37288;SDS011;23174;49.462;11.000;2023-08-17T01:57:12;2.03;;;1.85;;
37288;SDS011;23174;49.462;11.000;2023-08-17T01:59:13;2.88;;;2.53;;
37288;SDS011;23174;49.462;11.000;2023-08-17T02:01:13;4.50;;;2.65;;
37288;SDS011;23174;49.462;11.000;2023-08-17T02:03:14;2.97;;;2.50;;
37288;SDS011;23174;49.462;11.000;2023-08-17T02:05:14;2.17;;;1.85;;
37288;SDS011;23174;49.462;11.000;2023-08-17T02:07:15;2.70;;;2.50;;
37288;SDS011;23174;49.462;11.000;2023-08-17T02:09:15;2.50;;;2.30;;
37288;SDS011;23174;49.462;11.000;2023-08-17T02:11:16;4.15;;;2.08;;
37288;SDS011;23174;49.462;11.000;2023-08-17T02:13:17;3.05;;;2.55;;
37288;SDS011;23174;49.462;11.000;2023-08-17T02:15:18;3.03;;;2.78;;
37288;SDS011;23174;49.462;11.000;2023-08-17T02:17:19;2.90;;;2.70;;
37288;SDS011;23174;49.462;11.000;2023-08-17T02:19:21;5.80;;;2.08;;
37288;SDS011;23174;49.462;11.000;2023-08-17T02:21:21;2.65;;;1.67;;
37288;SDS011;23174;49.462;11.000;2023-08-17T02:23:22;2.17;;;1.65;;
37288;SDS011;23174;49.462;11.000;2023-08-17T02:25:22;3.33;;;2.63;;
37288;SDS011;23174;49.462;11.000;2023-08-17T02:27:23;2.28;;;2.08;;
37288;SDS011;23174;49.462;11.000;2023-08-17T02:29:24;4.40;;;2.33;;
37288;SDS011;23174;49.462;11.000;2023-08-17T02:31:24;4.32;;;1.98;;
37288;SDS011;23174;49.462;11.000;2023-08-17T02:33:25;2.17;;;2.00;;
37288;SDS011;23174;49.462;11.000;2023-08-17T02:35:25;4.78;;;2.53;;
37288;SDS011;23174;49.462;11.000;2023-08-17T02:37:26;4.00;;;2.47;;
37288;SDS011;23174;49.462;11.000;2023-08-17T02:39:26;2.65;;;2.45;;
37288;SDS011;23174;49.462;11.000;2023-08-17T02:41:27;4.78;;;2.65;;
37288;SDS011;23174;49.462;11.000;2023-08-17T02:43:27;2.95;;;2.75;;
37288;SDS011;23174;49.462;11.000;2023-08-17T02:45:28;2.25;;;2.05;;
37288;SDS011;23174;49.462;11.000;2023-08-17T02:47:28;2.50;;;2.30;;
37288;SDS011;23174;49.462;11.000;2023-08-17T02:49:29;2.58;;;2.25;;
37288;SDS011;23174;49.462;11.000;2023-08-17T02:51:29;1.27;;;1.17;;
37288;SDS011;23174;49.462;11.000;2023-08-17T02:53:30;1.98;;;1.88;;
37288;SDS011;23174;49.462;11.000;2023-08-17T02:55:30;3.00;;;2.80;;
37288;SDS011;23174;49.462;11.000;2023-08-17T02:57:31;2.08;;;1.98;;
37288;SDS011;23174;49.462;11.000;2023-08-17T02:59:31;2.17;;;2.03;;
37288;SDS011;23174;49.462;11.000;2023-08-17T03:01:32;2.42;;;2.22;;
37288;SDS011;23174;49.462;11.000;2023-08-17T03:03:32;5.07;;;2.28;;
37288;SDS011;23174;49.462;11.000;2023-08-17T03:05:33;2.60;;;2.40;;
37288;SDS011;23174;49.462;11.000;2023-08-17T03:07:34;2.95;;;2.22;;
37288;SDS011;23174;49.462;11.000;2023-08-17T03:09:34;3.30;;;3.00;;
37288;SDS011;23174;49.462;11.000;2023-08-17T03:11:35;2.63;;;2.47;;
37288;SDS011;23174;49.462;11.000;2023-08-17T03:13:35;7.82;;;2.72;;
37288;SDS011;23174;49.462;11.000;2023-08-17T03:15:36;2.78;;;2.53;;
37288;SDS011;23174;49.462;11.000;2023-08-17T03:17:39;3.15;;;2.95;;
37288;SDS011;23174;49.462;11.000;2023-08-17T03:19:40;2.50;;;2.30;;
37288;SDS011;23174;49.462;11.000;2023-08-17T03:21:41;3.15;;;2.78;;
37288;SDS011;23174;49.462;11.000;2023-08-17T03:23:41;2.70;;;2.50;;
37288;SDS011;23174;49.462;11.000;2023-08-17T03:25:41;4.30;;;3.17;;
37288;SDS011;23174;49.462;11.000;2023-08-17T03:27:42;7.65;;;2.42;;
37288;SDS011;23174;49.462;11.000;2023-08-17T03:29:42;1.35;;;1.23;;
37288;SDS011;23174;49.462;11.000;2023-08-17T03:31:43;3.92;;;2.60;;
37288;SDS011;23174;49.462;11.000;2023-08-17T03:33:43;2.53;;;2.33;;
37288;SDS011;23174;49.462;11.000;2023-08-17T03:35:44;3.10;;;2.75;;
37288;SDS011;23174;49.462;11.000;2023-08-17T03:37:44;3.42;;;3.13;;
37288;SDS011;23174;49.462;11.000;2023-08-17T03:39:45;3.55;;;3.13;;
37288;SDS011;23174;49.462;11.000;2023-08-17T03:41:45;4.13;;;2.45;;
37288;SDS011;23174;49.462;11.000;2023-08-17T03:43:46;2.35;;;2.17;;
37288;SDS011;23174;49.462;11.000;2023-08-17T03:45:47;2.72;;;2.53;;
37288;SDS011;23174;49.462;11.000;2023-08-17T03:47:48;5.18;;;2.72;;
37288;SDS011;23174;49.462;11.000;2023-08-17T03:49:48;1.98;;;1.88;;
37288;SDS011;23174;49.462;11.000;2023-08-17T03:51:49;3.08;;;2.75;;
37288;SDS011;23174;49.462;11.000;2023-08-17T03:53:49;4.75;;;2.35;;
37288;SDS011;23174;49.462;11.000;2023-08-17T03:55:50;3.70;;;3.40;;
37288;SDS011;23174;49.462;11.000;2023-08-17T03:57:50;4.28;;;2.70;;
37288;SDS011;23174;49.462;11.000;2023-08-17T03:59:51;2.20;;;1.52;;
37288;SDS011;23174;49.462;11.000;2023-08-17T04:01:51;2.58;;;2.38;;
37288;SDS011;23174;49.462;11.000;2023-08-17T04:03:52;5.60;;;3.25;;
37288;SDS011;23174;49.462;11.000;2023-08-17T04:05:52;2.40;;;2.20;;
37288;SDS011;23174;49.462;11.000;2023-08-17T04:07:53;2.50;;;1.88;;
37288;SDS011;23174;49.462;11.000;2023-08-17T04:09:53;2.85;;;2.60;;
37288;SDS011;23174;49.462;11.000;2023-08-17T04:11:54;3.00;;;2.75;;
37288;SDS011;23174;49.462;11.000;2023-08-17T04:13:55;2.40;;;2.20;;
37288;SDS011;23174;49.462;11.000;2023-08-17T04:15:55;3.63;;;3.33;;
37288;SDS011;23174;49.462;11.000;2023-08-17T04:17:56;3.00;;;2.40;;
37288;SDS011;23174;49.462;11.000;2023-08-17T04:19:56;7.45;;;2.92;;
37288;SDS011;23174;49.462;11.000;2023-08-17T04:21:58;2.78;;;2.08;;
37288;SDS011;23174;49.462;11.000;2023-08-17T04:23:59;2.70;;;2.13;;
37288;SDS011;23174;49.462;11.000;2023-08-17T04:25:59;3.03;;;2.72;;
37288;SDS011;23174;49.462;11.000;2023-08-17T04:28:00;3.17;;;2.55;;
37288;SDS011;23174;49.462;11.000;2023-08-17T04:30:00;3.22;;;2.22;;
37288;SDS011;23174;49.462;11.000;2023-08-17T04:32:01;2.42;;;2.22;;
37288;SDS011;23174;49.462;11.000;2023-08-17T04:34:01;7.70;;;3.53;;
37288;SDS011;23174;49.462;11.000;2023-08-17T04:36:02;3.80;;;2.95;;
37288;SDS011;23174;49.462;11.000;2023-08-17T04:38:03;2.90;;;2.65;;
37288;SDS011;23174;49.462;11.000;2023-08-17T04:40:04;3.53;;;2.97;;
37288;SDS011;23174;49.462;11.000;2023-08-17T04:42:05;3.20;;;2.90;;
37288;SDS011;23174;49.462;11.000;2023-08-17T04:44:06;3.25;;;2.92;;
37288;SDS011;23174;49.462;11.000;2023-08-17T04:46:06;2.95;;;2.28;;
37288;SDS011;23174;49.462;11.000;2023-08-17T04:48:06;3.75;;;2.97;;
37288;SDS011;23174;49.462;11.000;2023-08-17T04:50:07;4.13;;;3.50;;
37288;SDS011;23174;49.462;11.000;2023-08-17T04:52:08;3.38;;;3.08;;
37288;SDS011;23174;49.462;11.000;2023-08-17T04:54:08;4.13;;;2.88;;
37288;SDS011;23174;49.462;11.000;2023-08-17T04:56:09;7.22;;;3.30;;
37288;SDS011;23174;49.462;11.000;2023-08-17T04:58:09;9.57;;;3.67;;
37288;SDS011;23174;49.462;11.000;2023-08-17T05:00:10;3.33;;;3.10;;
37288;SDS011;23174;49.462;11.000;2023-08-17T05:02:12;2.42;;;2.25;;
37288;SDS011;23174;49.462;11.000;2023-08-17T05:04:13;6.25;;;3.17;;
37288;SDS011;23174;49.462;11.000;2023-08-17T05:06:13;3.28;;;2.97;;
37288;SDS011;23174;49.462;11.000;2023-08-17T05:08:14;4.45;;;2.78;;
37288;SDS011;23174;49.462;11.000;2023-08-17T05:10:14;3.60;;;2.90;;
37288;SDS011;23174;49.462;11.000;2023-08-17T05:12:15;2.92;;;2.70;;
37288;SDS011;23174;49.462;11.000;2023-08-17T05:14:15;3.63;;;3.33;;
37288;SDS011;23174;49.462;11.000;2023-08-17T05:16:16;5.25;;;2.95;;
37288;SDS011;23174;49.462;11.000;2023-08-17T05:18:16;2.80;;;2.60;;
37288;SDS011;23174;49.462;11.000;2023-08-17T05:20:17;2.38;;;2.17;;
37288;SDS011;23174;49.462;11.000;2023-08-17T05:22:17;4.95;;;2.97;;
37288;SDS011;23174;49.462;11.000;2023-08-17T05:24:18;3.33;;;3.03;;
37288;SDS011;23174;49.462;11.000;2023-08-17T05:26:20;5.95;;;2.95;;
37288;SDS011;23174;49.462;11.000;2023-08-17T05:28:20;6.15;;;2.60;;
37288;SDS011;23174;49.462;11.000;2023-08-17T05:30:21;4.20;;;3.65;;
37288;SDS011;23174;49.462;11.000;2023-08-17T05:32:21;4.00;;;2.60;;
37288;SDS011;23174;49.462;11.000;2023-08-17T05:34:22;2.88;;;2.53;;
37288;SDS011;23174;49.462;11.000;2023-08-17T05:36:23;2.25;;;2.05;;
37288;SDS011;23174;49.462;11.000;2023-08-17T05:38:23;2.20;;;2.10;;
37288;SDS011;23174;49.462;11.000;2023-08-17T05:40:24;3.00;;;2.70;;
37288;SDS011;23174;49.462;11.000;2023-08-17T05:42:24;2.33;;;1.35;;
37288;SDS011;23174;49.462;11.000;2023-08-17T05:44:25;2.95;;;2.35;;
37288;SDS011;23174;49.462;11.000;2023-08-17T05:46:25;7.53;;;3.42;;
37288;SDS011;23174;49.462;11.000;2023-08-17T05:48:26;3.55;;;3.25;;
37288;SDS011;23174;49.462;11.000;2023-08-17T05:50:27;3.15;;;2.85;;
37288;SDS011;23174;49.462;11.000;2023-08-17T05:52:27;3.95;;;3.55;;
37288;SDS011;23174;49.462;11.000;2023-08-17T05:54:28;3.67;;;3.30;;
37288;SDS011;23174;49.462;11.000;2023-08-17T05:56:28;5.13;;;3.70;;
37288;SDS011;23174;49.462;11.000;2023-08-17T05:58:29;5.63;;;3.90;;
37288;SDS011;23174;49.462;11.000;2023-08-17T06:00:30;2.28;;;2.13;;
37288;SDS011;23174;49.462;11.000;2023-08-17T06:02:30;2.60;;;2.40;;
37288;SDS011;23174;49.462;11.000;2023-08-17T06:04:31;4.65;;;3.25;;
37288;SDS011;23174;49.462;11.000;2023-08-17T06:06:32;6.95;;;3.45;;
37288;SDS011;23174;49.462;11.000;2023-08-17T06:08:32;7.03;;;3.53;;
37288;SDS011;23174;49.462;11.000;2023-08-17T06:10:33;3.83;;;3.30;;
37288;SDS011;23174;49.462;11.000;2023-08-17T06:12:33;6.38;;;4.00;;
37288;SDS011;23174;49.462;11.000;2023-08-17T06:14:34;3.05;;;2.85;;
37288;SDS011;23174;49.462;11.000;2023-08-17T06:16:34;3.85;;;2.50;;
37288;SDS011;23174;49.462;11.000;2023-08-17T06:18:35;4.65;;;3.35;;
37288;SDS011;23174;49.462;11.000;2023-08-17T06:20:36;3.10;;;2.70;;
37288;SDS011;23174;49.462;11.000;2023-08-17T06:22:37;2.92;;;2.58;;
37288;SDS011;23174;49.462;11.000;2023-08-17T06:24:38;4.35;;;2.72;;
37288;SDS011;23174;49.462;11.000;2023-08-17T06:26:38;5.38;;;3.38;;
37288;SDS011;23174;49.462;11.000;2023-08-17T06:28:39;3.33;;;3.03;;
37288;SDS011;23174;49.462;11.000;2023-08-17T06:30:39;3.58;;;3.28;;
37288;SDS011;23174;49.462;11.000;2023-08-17T06:32:40;4.65;;;3.00;;
37288;SDS011;23174;49.462;11.000;2023-08-17T06:34:40;5.50;;;3.85;;
37288;SDS011;23174;49.462;11.000;2023-08-17T06:36:41;5.30;;;2.75;;
37288;SDS011;23174;49.462;11.000;2023-08-17T06:38:56;5.53;;;2.83;;
37288;SDS011;23174;49.462;11.000;2023-08-17T06:40:56;4.30;;;2.78;;
37288;SDS011;23174;49.462;11.000;2023-08-17T06:42:57;3.50;;;2.92;;
37288;SDS011;23174;49.462;11.000;2023-08-17T06:44:57;6.53;;;4.07;;
37288;SDS011;23174;49.462;11.000;2023-08-17T06:46:58;3.20;;;2.30;;
37288;SDS011;23174;49.462;11.000;2023-08-17T06:48:58;10.95;;;3.90;;
37288;SDS011;23174;49.462;11.000;2023-08-17T06:50:59;3.38;;;3.08;;
37288;SDS011;23174;49.462;11.000;2023-08-17T06:53:02;3.25;;;2.20;;
37288;SDS011;23174;49.462;11.000;2023-08-17T06:55:04;4.10;;;3.35;;
37288;SDS011;23174;49.462;11.000;2023-08-17T06:57:05;3.25;;;2.95;;
37288;SDS011;23174;49.462;11.000;2023-08-17T06:59:06;5.07;;;3.60;;
37288;SDS011;23174;49.462;11.000;2023-08-17T07:01:07;5.47;;;2.88;;
37288;SDS011;23174;49.462;11.000;2023-08-17T07:03:07;3.83;;;3.25;;
37288;SDS011;23174;49.462;11.000;2023-08-17T07:05:10;2.55;;;2.35;;
37288;SDS011;23174;49.462;11.000;2023-08-17T07:07:11;3.72;;;3.35;;
37288;SDS011;23174;49.462;11.000;2023-08-17T07:09:15;6.38;;;3.53;;
37288;SDS011;23174;49.462;11.000;2023-08-17T07:11:15;4.55;;;3.67;;
37288;SDS011;23174;49.462;11.000;2023-08-17T07:13:16;5.95;;;4.40;;
37288;SDS011;23174;49.462;11.000;2023-08-17T07:15:16;11.40;;;6.05;;
37288;SDS011;23174;49.462;11.000;2023-08-17T07:17:17;9.27;;;5.65;;
37288;SDS011;23174;49.462;11.000;2023-08-17T07:19:17;6.63;;;5.13;;
37288;SDS011;23174;49.462;11.000;2023-08-17T07:21:18;8.48;;;6.25;;
37288;SDS011;23174;49.462;11.000;2023-08-17T07:23:18;6.05;;;5.55;;
37288;SDS011;23174;49.462;11.000;2023-08-17T07:25:19;6.40;;;5.75;;
37288;SDS011;23174;49.462;11.000;2023-08-17T07:27:19;6.53;;;5.35;;
37288;SDS011;23174;49.462;11.000;2023-08-17T07:29:20;5.80;;;5.13;;
37288;SDS011;23174;49.462;11.000;2023-08-17T07:31:20;6.43;;;5.63;;
37288;SDS011;23174;49.462;11.000;2023-08-17T07:33:21;6.20;;;5.60;;
37288;SDS011;23174;49.462;11.000;2023-08-17T07:35:21;6.38;;;5.30;;
37288;SDS011;23174;49.462;11.000;2023-08-17T07:37:22;9.90;;;5.43;;
37288;SDS011;23174;49.462;11.000;2023-08-17T07:39:22;7.82;;;5.75;;
37288;SDS011;23174;49.462;11.000;2023-08-17T07:41:23;7.07;;;5.47;;
37288;SDS011;23174;49.462;11.000;2023-08-17T07:43:23;10.45;;;5.80;;
37288;SDS011;23174;49.462;11.000;2023-08-17T07:45:24;6.05;;;5.45;;
37288;SDS011;23174;49.462;11.000;2023-08-17T07:47:25;5.35;;;4.88;;
37288;SDS011;23174;49.462;11.000;2023-08-17T07:49:25;6.80;;;5.40;;
37288;SDS011;23174;49.462;11.000;2023-08-17T07:51:27;5.50;;;5.00;;
37288;SDS011;23174;49.462;11.000;2023-08-17T07:53:30;6.03;;;5.40;;
37288;SDS011;23174;49.462;11.000;2023-08-17T07:55:31;7.32;;;5.57;;
37288;SDS011;23174;49.462;11.000;2023-08-17T07:57:31;5.57;;;5.10;;
37288;SDS011;23174;49.462;11.000;2023-08-17T07:59:32;8.30;;;5.68;;
37288;SDS011;23174;49.462;11.000;2023-08-17T08:01:32;8.40;;;5.43;;
37288;SDS011;23174;49.462;11.000;2023-08-17T08:03:33;8.18;;;5.35;;
37288;SDS011;23174;49.462;11.000;2023-08-17T08:05:33;8.07;;;5.40;;
37288;SDS011;23174;49.462;11.000;2023-08-17T08:07:34;10.82;;;6.03;;
37288;SDS011;23174;49.462;11.000;2023-08-17T08:09:34;9.77;;;6.03;;
37288;SDS011;23174;49.462;11.000;2023-08-17T08:11:34;6.50;;;4.78;;
37288;SDS011;23174;49.462;11.000;2023-08-17T08:13:35;7.68;;;5.45;;
37288;SDS011;23174;49.462;11.000;2023-08-17T08:15:35;6.07;;;5.50;;
37288;SDS011;23174;49.462;11.000;2023-08-17T08:17:36;6.82;;;5.28;;
37288;SDS011;23174;49.462;11.000;2023-08-17T08:19:37;6.18;;;5.40;;
37288;SDS011;23174;49.462;11.000;2023-08-17T08:21:37;6.55;;;5.97;;
37288;SDS011;23174;49.462;11.000;2023-08-17T08:23:38;5.82;;;5.32;;
37288;SDS011;23174;49.462;11.000;2023-08-17T08:25:38;5.50;;;4.97;;
37288;SDS011;23174;49.462;11.000;2023-08-17T08:27:39;5.72;;;5.22;;
37288;SDS011;23174;49.462;11.000;2023-08-17T08:29:39;4.90;;;4.53;;
37288;SDS011;23174;49.462;11.000;2023-08-17T08:31:39;7.93;;;5.80;;
37288;SDS011;23174;49.462;11.000;2023-08-17T08:33:40;4.75;;;4.35;;
37288;SDS011;23174;49.462;11.000;2023-08-17T08:35:40;7.55;;;4.50;;
37288;SDS011;23174;49.462;11.000;2023-08-17T08:37:41;5.63;;;5.00;;
37288;SDS011;23174;49.462;11.000;2023-08-17T08:42:10;5.63;;;5.05;;
37288;SDS011;23174;49.462;11.000;2023-08-17T08:44:11;5.03;;;4.60;;
37288;SDS011;23174;49.462;11.000;2023-08-17T08:46:12;5.18;;;4.75;;
37288;SDS011;23174;49.462;11.000;2023-08-17T08:48:14;10.27;;;5.15;;
37288;SDS011;23174;49.462;11.000;2023-08-17T08:50:18;6.63;;;4.95;;
37288;SDS011;23174;49.462;11.000;2023-08-17T08:52:22;6.13;;;5.13;;
37288;SDS011;23174;49.462;11.000;2023-08-17T08:54:28;7.20;;;5.05;;
37288;SDS011;23174;49.462;11.000;2023-08-17T08:56:32;6.53;;;5.05;;
37288;SDS011;23174;49.462;11.000;2023-08-17T08:58:34;6.43;;;5.53;;
37288;SDS011;23174;49.462;11.000;2023-08-17T09:00:36;8.40;;;5.25;;
37288;SDS011;23174;49.462;11.000;2023-08-17T09:02:38;5.22;;;4.82;;
37288;SDS011;23174;49.462;11.000;2023-08-17T09:04:39;5.20;;;4.78;;
37288;SDS011;23174;49.462;11.000;2023-08-17T09:06:40;5.38;;;4.88;;
37288;SDS011;23174;49.462;11.000;2023-08-17T09:08:42;3.60;;;3.17;;
37288;SDS011;23174;49.462;11.000;2023-08-17T09:10:45;4.55;;;4.15;;
37288;SDS011;23174;49.462;11.000;2023-08-17T09:12:46;6.13;;;5.05;;
37288;SDS011;23174;49.462;11.000;2023-08-17T09:14:47;6.43;;;5.38;;
37288;SDS011;23174;49.462;11.000;2023-08-17T09:16:48;5.40;;;4.90;;
37288;SDS011;23174;49.462;11.000;2023-08-17T09:18:49;5.00;;;4.47;;
37288;SDS011;23174;49.462;11.000;2023-08-17T09:20:52;5.68;;;5.20;;
37288;SDS011;23174;49.462;11.000;2023-08-17T09:22:53;5.15;;;4.75;;
37288;SDS011;23174;49.462;11.000;2023-08-17T09:24:54;3.75;;;3.45;;
37288;SDS011;23174;49.462;11.000;2023-08-17T09:26:55;4.57;;;4.18;;
37288;SDS011;23174;49.462;11.000;2023-08-17T09:28:58;5.07;;;4.68;;
37288;SDS011;23174;49.462;11.000;2023-08-17T09:31:00;5.88;;;5.32;;
37288;SDS011;23174;49.462;11.000;2023-08-17T09:33:03;5.93;;;5.28;;
37288;SDS011;23174;49.462;11.000;2023-08-17T09:35:05;4.97;;;4.60;;
37288;SDS011;23174;49.462;11.000;2023-08-17T09:37:06;6.45;;;4.72;;
37288;SDS011;23174;49.462;11.000;2023-08-17T09:39:10;5.65;;;5.10;;
37288;SDS011;23174;49.462;11.000;2023-08-17T09:41:10;6.38;;;5.75;;
37288;SDS011;23174;49.462;11.000;2023-08-17T09:43:14;5.05;;;4.65;;
37288;SDS011;23174;49.462;11.000;2023-08-17T09:45:17;5.90;;;5.40;;
37288;SDS011;23174;49.462;11.000;2023-08-17T09:47:17;6.32;;;5.82;;
37288;SDS011;23174;49.462;11.000;2023-08-17T09:49:19;6.50;;;5.82;;
37288;SDS011;23174;49.462;11.000;2023-08-17T09:51:19;10.05;;;5.55;;
37288;SDS011;23174;49.462;11.000;2023-08-17T09:53:20;5.70;;;5.20;;
37288;SDS011;23174;49.462;11.000;2023-08-17T09:55:23;5.80;;;4.93;;
37288;SDS011;23174;49.462;11.000;2023-08-17T09:57:24;5.63;;;4.28;;
37288;SDS011;23174;49.462;11.000;2023-08-17T09:59:25;7.85;;;4.38;;
37288;SDS011;23174;49.462;11.000;2023-08-17T10:01:27;7.80;;;6.28;;
37288;SDS011;23174;49.462;11.000;2023-08-17T10:03:29;5.97;;;5.57;;
37288;SDS011;23174;49.462;11.000;2023-08-17T10:07:41;6.65;;;5.47;;
37288;SDS011;23174;49.462;11.000;2023-08-17T10:09:48;5.68;;;5.15;;
37288;SDS011;23174;49.462;11.000;2023-08-17T10:11:57;5.43;;;5.03;;
37288;SDS011;23174;49.462;11.000;2023-08-17T10:14:02;5.45;;;5.03;;
37288;SDS011;23174;49.462;11.000;2023-08-17T10:18:22;5.43;;;5.03;;
37288;SDS011;23174;49.462;11.000;2023-08-17T10:20:37;5.68;;;5.25;;
37288;SDS011;23174;49.462;11.000;2023-08-17T10:25:03;5.30;;;4.80;;
37288;SDS011;23174;49.462;11.000;2023-08-17T10:27:05;4.85;;;4.45;;
37288;SDS011;23174;49.462;11.000;2023-08-17T10:29:06;5.85;;;5.45;;
37288;SDS011;23174;49.462;11.000;2023-08-17T10:31:07;6.07;;;5.20;;
37288;SDS011;23174;49.462;11.000;2023-08-17T10:33:09;8.90;;;5.53;;
37288;SDS011;23174;49.462;11.000;2023-08-17T10:35:09;4.85;;;4.43;;
37288;SDS011;23174;49.462;11.000;2023-08-17T10:37:11;4.82;;;4.43;;
37288;SDS011;23174;49.462;11.000;2023-08-17T10:39:28;5.40;;;4.70;;
37288;SDS011;23174;49.462;11.000;2023-08-17T10:41:29;5.20;;;4.80;;
37288;SDS011;23174;49.462;11.000;2023-08-17T10:43:33;5.53;;;4.20;;
37288;SDS011;23174;49.462;11.000;2023-08-17T10:45:34;5.38;;;4.57;;
37288;SDS011;23174;49.462;11.000;2023-08-17T10:47:37;2.72;;;2.20;;
37288;SDS011;23174;49.462;11.000;2023-08-17T10:49:38;4.03;;;3.67;;
37288;SDS011;23174;49.462;11.000;2023-08-17T10:51:42;4.32;;;3.97;;
37288;SDS011;23174;49.462;11.000;2023-08-17T10:54:02;6.80;;;5.22;;
37288;SDS011;23174;49.462;11.000;2023-08-17T10:56:06;4.65;;;4.25;;
37288;SDS011;23174;49.462;11.000;2023-08-17T10:58:08;6.75;;;5.15;;
37288;SDS011;23174;49.462;11.000;2023-08-17T11:00:19;6.13;;;5.63;;
37288;SDS011;23174;49.462;11.000;2023-08-17T11:02:26;5.47;;;5.05;;
37288;SDS011;23174;49.462;11.000;2023-08-17T11:04:32;5.63;;;4.95;;
37288;SDS011;23174;49.462;11.000;2023-08-17T11:06:32;5.13;;;4.65;;
37288;SDS011;23174;49.462;11.000;2023-08-17T11:08:38;6.22;;;4.88;;
37288;SDS011;23174;49.462;11.000;2023-08-17T11:10:46;5.88;;;5.38;;
37288;SDS011;23174;49.462;11.000;2023-08-17T11:12:48;4.75;;;2.75;;
37288;SDS011;23174;49.462;11.000;2023-08-17T11:14:49;6.15;;;5.53;;
37288;SDS011;23174;49.462;11.000;2023-08-17T11:16:49;5.22;;;4.93;;
37288;SDS011;23174;49.462;11.000;2023-08-17T11:18:50;5.45;;;4.95;;
37288;SDS011;23174;49.462;11.000;2023-08-17T11:20:52;5.22;;;4.72;;
37288;SDS011;23174;49.462;11.000;2023-08-17T11:22:53;5.97;;;5.47;;
37288;SDS011;23174;49.462;11.000;2023-08-17T11:24:54;6.55;;;5.35;;
37288;SDS011;23174;49.462;11.000;2023-08-17T11:26:55;5.60;;;5.20;;
37288;SDS011;23174;49.462;11.000;2023-08-17T11:28:56;5.75;;;5.25;;
37288;SDS011;23174;49.462;11.000;2023-08-17T11:30:57;5.18;;;4.78;;
37288;SDS011;23174;49.462;11.000;2023-08-17T11:35:17;4.68;;;4.13;;
37288;SDS011;23174;49.462;11.000;2023-08-17T11:37:18;8.90;;;5.43;;
37288;SDS011;23174;49.462;11.000;2023-08-17T11:39:18;8.15;;;5.18;;
37288;SDS011;23174;49.462;11.000;2023-08-17T11:41:21;5.72;;;5.32;;
37288;SDS011;23174;49.462;11.000;2023-08-17T11:43:21;8.30;;;5.78;;
37288;SDS011;23174;49.462;11.000;2023-08-17T11:45:22;4.30;;;3.40;;
37288;SDS011;23174;49.462;11.000;2023-08-17T11:47:23;5.60;;;5.10;;
37288;SDS011;23174;49.462;11.000;2023-08-17T11:49:24;6.88;;;5.53;;
37288;SDS011;23174;49.462;11.000;2023-08-17T11:51:30;5.82;;;5.32;;
37288;SDS011;23174;49.462;11.000;2023-08-17T11:53:35;9.02;;;5.82;;
37288;SDS011;23174;49.462;11.000;2023-08-17T11:55:36;5.90;;;5.40;;
37288;SDS011;23174;49.462;11.000;2023-08-17T11:57:37;7.55;;;5.47;;
37288;SDS011;23174;49.462;11.000;2023-08-17T11:59:38;6.95;;;5.35;;
37288;SDS011;23174;49.462;11.000;2023-08-17T12:01:39;5.82;;;4.93;;
37288;SDS011;23174;49.462;11.000;2023-08-17T12:03:40;6.90;;;5.05;;
37288;SDS011;23174;49.462;11.000;2023-08-17T12:05:41;5.78;;;5.20;;
37288;SDS011;23174;49.462;11.000;2023-08-17T12:07:43;4.35;;;4.05;;
37288;SDS011;23174;49.462;11.000;2023-08-17T12:09:45;5.68;;;5.28;;
37288;SDS011;23174;49.462;11.000;2023-08-17T12:11:46;4.90;;;4.50;;
37288;SDS011;23174;49.462;11.000;2023-08-17T12:13:50;4.45;;;4.05;;
37288;SDS011;23174;49.462;11.000;2023-08-17T12:15:51;4.85;;;4.40;;
37288;SDS011;23174;49.462;11.000;2023-08-17T12:17:52;4.85;;;4.45;;